sensor_id;sensor_type;location;lat;lon;timestamp;P1;durP1;ratioP1;P2;durP2;ratioP2
42478;SDS011;28110;47.080;9.476;2023-03-01T00:01:49;25.70;;;13.87;;
42478;SDS011;28110;47.080;9.476;2023-03-01T00:04:15;24.60;;;13.63;;
42478;SDS011;28110;47.080;9.476;2023-03-01T00:06:41;25.52;;;13.80;;
42478;SDS011;28110;47.080;9.476;2023-03-01T00:09:08;29.08;;;13.85;;
42478;SDS011;28110;47.080;9.476;2023-03-01T00:11:33;27.07;;;14.33;;
42478;SDS011;28110;47.080;9.476;2023-03-01T00:13:59;33.72;;;15.45;;
42478;SDS011;28110;47.080;9.476;2023-03-01T00:16:30;30.95;;;14.93;;
42478;SDS011;28110;47.080;9.476;2023-03-01T00:18:58;28.67;;;14.43;;
42478;SDS011;28110;47.080;9.476;2023-03-01T00:21:24;30.10;;;15.23;;
42478;SDS011;28110;47.080;9.476;2023-03-01T00:23:51;28.92;;;14.65;;
42478;SDS011;28110;47.080;9.476;2023-03-01T00:26:18;27.33;;;14.23;;
42478;SDS011;28110;47.080;9.476;2023-03-01T00:28:45;27.85;;;14.57;;
42478;SDS011;28110;47.080;9.476;2023-03-01T00:31:13;29.52;;;15.75;;
42478;SDS011;28110;47.080;9.476;2023-03-01T00:33:44;29.08;;;14.10;;
42478;SDS011;28110;47.080;9.476;2023-03-01T00:36:11;29.63;;;15.23;;
42478;SDS011;28110;47.080;9.476;2023-03-01T00:38:39;31.60;;;14.60;;
42478;SDS011;28110;47.080;9.476;2023-03-01T00:41:09;26.95;;;14.32;;
42478;SDS011;28110;47.080;9.476;2023-03-01T00:43:36;31.40;;;15.07;;
42478;SDS011;28110;47.080;9.476;2023-03-01T00:46:06;28.17;;;14.70;;
42478;SDS011;28110;47.080;9.476;2023-03-01T00:48:34;31.27;;;14.57;;
42478;SDS011;28110;47.080;9.476;2023-03-01T00:51:04;27.58;;;14.68;;
42478;SDS011;28110;47.080;9.476;2023-03-01T00:53:34;28.90;;;14.77;;
42478;SDS011;28110;47.080;9.476;2023-03-01T00:56:00;28.88;;;15.25;;
42478;SDS011;28110;47.080;9.476;2023-03-01T00:58:25;30.70;;;14.87;;
42478;SDS011;28110;47.080;9.476;2023-03-01T01:00:51;30.08;;;15.80;;
42478;SDS011;28110;47.080;9.476;2023-03-01T01:03:20;33.00;;;15.00;;
42478;SDS011;28110;47.080;9.476;2023-03-01T01:05:45;31.53;;;15.37;;
42478;SDS011;28110;47.080;9.476;2023-03-01T01:08:11;29.77;;;15.47;;
42478;SDS011;28110;47.080;9.476;2023-03-01T01:10:36;31.27;;;15.35;;
42478;SDS011;28110;47.080;9.476;2023-03-01T01:13:02;29.67;;;15.10;;
42478;SDS011;28110;47.080;9.476;2023-03-01T01:15:29;29.67;;;14.23;;
42478;SDS011;28110;47.080;9.476;2023-03-01T01:17:58;28.88;;;15.00;;
42478;SDS011;28110;47.080;9.476;2023-03-01T01:20:24;28.10;;;14.37;;
42478;SDS011;28110;47.080;9.476;2023-03-01T01:22:49;27.43;;;14.13;;
42478;SDS011;28110;47.080;9.476;2023-03-01T01:25:16;30.25;;;15.48;;
42478;SDS011;28110;47.080;9.476;2023-03-01T01:27:41;32.08;;;15.88;;
42478;SDS011;28110;47.080;9.476;2023-03-01T01:30:07;30.83;;;15.13;;
42478;SDS011;28110;47.080;9.476;2023-03-01T01:32:33;33.10;;;15.98;;
42478;SDS011;28110;47.080;9.476;2023-03-01T01:34:58;31.23;;;15.40;;
42478;SDS011;28110;47.080;9.476;2023-03-01T01:37:24;31.20;;;15.93;;
42478;SDS011;28110;47.080;9.476;2023-03-01T01:39:55;29.15;;;14.90;;
42478;SDS011;28110;47.080;9.476;2023-03-01T01:42:23;29.60;;;15.18;;
42478;SDS011;28110;47.080;9.476;2023-03-01T01:45:15;30.40;;;15.33;;
42478;SDS011;28110;47.080;9.476;2023-03-01T01:47:55;33.33;;;14.93;;
42478;SDS011;28110;47.080;9.476;2023-03-01T01:50:25;31.60;;;15.57;;
42478;SDS011;28110;47.080;9.476;2023-03-01T01:52:52;32.13;;;15.27;;
42478;SDS011;28110;47.080;9.476;2023-03-01T01:55:21;30.55;;;15.23;;
42478;SDS011;28110;47.080;9.476;2023-03-01T01:57:54;28.23;;;14.37;;
42478;SDS011;28110;47.080;9.476;2023-03-01T02:00:24;34.05;;;15.90;;
42478;SDS011;28110;47.080;9.476;2023-03-01T02:02:55;32.35;;;15.88;;
42478;SDS011;28110;47.080;9.476;2023-03-01T02:08:30;35.10;;;15.20;;
42478;SDS011;28110;47.080;9.476;2023-03-01T02:10:58;30.53;;;14.67;;
42478;SDS011;28110;47.080;9.476;2023-03-01T02:13:25;29.45;;;15.20;;
42478;SDS011;28110;47.080;9.476;2023-03-01T02:15:52;30.65;;;15.55;;
42478;SDS011;28110;47.080;9.476;2023-03-01T02:18:18;32.63;;;16.70;;
42478;SDS011;28110;47.080;9.476;2023-03-01T02:23:36;28.65;;;14.90;;
42478;SDS011;28110;47.080;9.476;2023-03-01T02:26:45;33.65;;;15.55;;
42478;SDS011;28110;47.080;9.476;2023-03-01T02:28:58;33.47;;;16.30;;
42478;SDS011;28110;47.080;9.476;2023-03-01T02:31:24;40.33;;;16.60;;
42478;SDS011;28110;47.080;9.476;2023-03-01T02:34:09;30.88;;;14.38;;
42478;SDS011;28110;47.080;9.476;2023-03-01T02:36:42;34.65;;;16.95;;
42478;SDS011;28110;47.080;9.476;2023-03-01T02:39:14;33.47;;;16.25;;
42478;SDS011;28110;47.080;9.476;2023-03-01T02:41:49;33.25;;;15.35;;
42478;SDS011;28110;47.080;9.476;2023-03-01T02:44:17;30.73;;;14.83;;
42478;SDS011;28110;47.080;9.476;2023-03-01T02:46:44;34.22;;;16.48;;
42478;SDS011;28110;47.080;9.476;2023-03-01T02:49:18;34.15;;;16.70;;
42478;SDS011;28110;47.080;9.476;2023-03-01T02:51:59;31.15;;;15.70;;
42478;SDS011;28110;47.080;9.476;2023-03-01T02:57:23;33.97;;;15.77;;
42478;SDS011;28110;47.080;9.476;2023-03-01T02:59:50;35.15;;;16.65;;
42478;SDS011;28110;47.080;9.476;2023-03-01T03:02:28;33.58;;;16.23;;
42478;SDS011;28110;47.080;9.476;2023-03-01T03:05:43;34.90;;;16.30;;
42478;SDS011;28110;47.080;9.476;2023-03-01T03:07:54;31.13;;;15.60;;
42478;SDS011;28110;47.080;9.476;2023-03-01T03:10:21;31.83;;;15.52;;
42478;SDS011;28110;47.080;9.476;2023-03-01T03:12:54;33.45;;;15.55;;
42478;SDS011;28110;47.080;9.476;2023-03-01T03:15:24;32.83;;;16.30;;
42478;SDS011;28110;47.080;9.476;2023-03-01T03:17:51;32.55;;;16.00;;
42478;SDS011;28110;47.080;9.476;2023-03-01T03:20:19;35.03;;;16.20;;
42478;SDS011;28110;47.080;9.476;2023-03-01T03:22:47;31.70;;;15.75;;
42478;SDS011;28110;47.080;9.476;2023-03-01T03:25:14;30.95;;;15.52;;
42478;SDS011;28110;47.080;9.476;2023-03-01T03:27:42;35.53;;;16.33;;
42478;SDS011;28110;47.080;9.476;2023-03-01T03:30:12;30.90;;;15.35;;
42478;SDS011;28110;47.080;9.476;2023-03-01T03:32:40;31.50;;;15.77;;
42478;SDS011;28110;47.080;9.476;2023-03-01T03:35:07;34.35;;;16.58;;
42478;SDS011;28110;47.080;9.476;2023-03-01T03:37:37;33.35;;;16.90;;
42478;SDS011;28110;47.080;9.476;2023-03-01T03:40:22;35.47;;;16.55;;
42478;SDS011;28110;47.080;9.476;2023-03-01T03:42:48;32.00;;;15.90;;
42478;SDS011;28110;47.080;9.476;2023-03-01T03:45:14;32.70;;;16.13;;
42478;SDS011;28110;47.080;9.476;2023-03-01T03:47:43;33.27;;;15.27;;
42478;SDS011;28110;47.080;9.476;2023-03-01T03:50:10;31.88;;;15.98;;
42478;SDS011;28110;47.080;9.476;2023-03-01T03:52:36;32.22;;;16.05;;
42478;SDS011;28110;47.080;9.476;2023-03-01T03:55:02;31.23;;;15.23;;
42478;SDS011;28110;47.080;9.476;2023-03-01T03:57:28;33.47;;;16.80;;
42478;SDS011;28110;47.080;9.476;2023-03-01T03:59:53;37.50;;;17.83;;
42478;SDS011;28110;47.080;9.476;2023-03-01T04:02:19;31.75;;;15.73;;
42478;SDS011;28110;47.080;9.476;2023-03-01T04:04:47;38.43;;;15.90;;
42478;SDS011;28110;47.080;9.476;2023-03-01T04:07:16;36.58;;;17.52;;
42478;SDS011;28110;47.080;9.476;2023-03-01T04:09:42;34.60;;;16.55;;
42478;SDS011;28110;47.080;9.476;2023-03-01T04:12:09;37.00;;;16.98;;
42478;SDS011;28110;47.080;9.476;2023-03-01T04:14:35;33.70;;;15.97;;
42478;SDS011;28110;47.080;9.476;2023-03-01T04:17:01;30.92;;;14.38;;
42478;SDS011;28110;47.080;9.476;2023-03-01T04:19:30;32.40;;;17.30;;
42478;SDS011;28110;47.080;9.476;2023-03-01T04:22:01;34.40;;;15.80;;
42478;SDS011;28110;47.080;9.476;2023-03-01T04:24:32;32.58;;;16.00;;
42478;SDS011;28110;47.080;9.476;2023-03-01T04:26:58;32.73;;;15.67;;
42478;SDS011;28110;47.080;9.476;2023-03-01T04:29:23;32.30;;;16.13;;
42478;SDS011;28110;47.080;9.476;2023-03-01T04:31:49;33.93;;;16.13;;
42478;SDS011;28110;47.080;9.476;2023-03-01T04:34:14;35.83;;;16.63;;
42478;SDS011;28110;47.080;9.476;2023-03-01T04:36:40;33.92;;;16.13;;
42478;SDS011;28110;47.080;9.476;2023-03-01T04:39:05;35.47;;;17.23;;
42478;SDS011;28110;47.080;9.476;2023-03-01T04:41:37;30.63;;;14.88;;
42478;SDS011;28110;47.080;9.476;2023-03-01T04:44:04;33.37;;;16.17;;
42478;SDS011;28110;47.080;9.476;2023-03-01T04:46:29;37.53;;;17.00;;
42478;SDS011;28110;47.080;9.476;2023-03-01T04:48:55;32.67;;;15.98;;
42478;SDS011;28110;47.080;9.476;2023-03-01T04:51:21;33.05;;;15.65;;
42478;SDS011;28110;47.080;9.476;2023-03-01T04:53:46;31.57;;;16.00;;
42478;SDS011;28110;47.080;9.476;2023-03-01T04:56:12;34.28;;;15.55;;
42478;SDS011;28110;47.080;9.476;2023-03-01T04:58:38;34.43;;;16.13;;
42478;SDS011;28110;47.080;9.476;2023-03-01T05:01:08;30.92;;;15.65;;
42478;SDS011;28110;47.080;9.476;2023-03-01T05:03:41;31.90;;;16.33;;
42478;SDS011;28110;47.080;9.476;2023-03-01T05:06:18;34.47;;;15.65;;
42478;SDS011;28110;47.080;9.476;2023-03-01T05:08:44;36.87;;;15.83;;
42478;SDS011;28110;47.080;9.476;2023-03-01T05:11:10;31.90;;;15.02;;
42478;SDS011;28110;47.080;9.476;2023-03-01T05:13:37;35.45;;;16.45;;
42478;SDS011;28110;47.080;9.476;2023-03-01T05:16:03;29.10;;;14.90;;
42478;SDS011;28110;47.080;9.476;2023-03-01T05:18:31;31.30;;;15.20;;
42478;SDS011;28110;47.080;9.476;2023-03-01T05:21:02;33.53;;;15.75;;
42478;SDS011;28110;47.080;9.476;2023-03-01T05:23:30;31.20;;;14.90;;
42478;SDS011;28110;47.080;9.476;2023-03-01T05:26:00;32.63;;;15.60;;
42478;SDS011;28110;47.080;9.476;2023-03-01T05:28:28;30.42;;;14.80;;
42478;SDS011;28110;47.080;9.476;2023-03-01T05:30:55;29.60;;;14.13;;
42478;SDS011;28110;47.080;9.476;2023-03-01T05:33:21;31.88;;;15.10;;
42478;SDS011;28110;47.080;9.476;2023-03-01T05:35:47;33.05;;;15.05;;
42478;SDS011;28110;47.080;9.476;2023-03-01T05:38:13;33.57;;;14.87;;
42478;SDS011;28110;47.080;9.476;2023-03-01T05:40:41;30.92;;;15.10;;
42478;SDS011;28110;47.080;9.476;2023-03-01T05:43:07;30.73;;;14.68;;
42478;SDS011;28110;47.080;9.476;2023-03-01T05:45:32;30.03;;;14.83;;
42478;SDS011;28110;47.080;9.476;2023-03-01T05:48:00;30.63;;;14.85;;
42478;SDS011;28110;47.080;9.476;2023-03-01T05:50:26;33.28;;;14.40;;
42478;SDS011;28110;47.080;9.476;2023-03-01T05:52:58;30.53;;;14.80;;
42478;SDS011;28110;47.080;9.476;2023-03-01T05:55:31;26.98;;;13.50;;
42478;SDS011;28110;47.080;9.476;2023-03-01T05:58:00;33.17;;;16.10;;
42478;SDS011;28110;47.080;9.476;2023-03-01T06:00:27;29.35;;;14.20;;
42478;SDS011;28110;47.080;9.476;2023-03-01T06:02:54;29.08;;;14.05;;
42478;SDS011;28110;47.080;9.476;2023-03-01T06:05:20;30.80;;;13.67;;
42478;SDS011;28110;47.080;9.476;2023-03-01T06:07:47;29.02;;;14.52;;
42478;SDS011;28110;47.080;9.476;2023-03-01T06:10:12;30.45;;;15.63;;
42478;SDS011;28110;47.080;9.476;2023-03-01T06:12:39;30.20;;;14.57;;
42478;SDS011;28110;47.080;9.476;2023-03-01T06:15:06;27.55;;;13.02;;
42478;SDS011;28110;47.080;9.476;2023-03-01T06:17:35;28.77;;;14.27;;
42478;SDS011;28110;47.080;9.476;2023-03-01T06:20:03;29.65;;;14.38;;
42478;SDS011;28110;47.080;9.476;2023-03-01T06:22:33;31.63;;;14.35;;
42478;SDS011;28110;47.080;9.476;2023-03-01T06:24:59;31.90;;;14.33;;
42478;SDS011;28110;47.080;9.476;2023-03-01T06:27:24;27.10;;;13.73;;
42478;SDS011;28110;47.080;9.476;2023-03-01T06:29:50;27.08;;;13.77;;
42478;SDS011;28110;47.080;9.476;2023-03-01T06:32:16;28.63;;;14.07;;
42478;SDS011;28110;47.080;9.476;2023-03-01T06:34:41;28.65;;;13.27;;
42478;SDS011;28110;47.080;9.476;2023-03-01T06:37:07;30.27;;;14.02;;
42478;SDS011;28110;47.080;9.476;2023-03-01T06:39:33;32.08;;;13.20;;
42478;SDS011;28110;47.080;9.476;2023-03-01T06:41:59;26.63;;;12.73;;
42478;SDS011;28110;47.080;9.476;2023-03-01T06:44:24;29.50;;;13.10;;
42478;SDS011;28110;47.080;9.476;2023-03-01T06:46:50;29.97;;;14.20;;
42478;SDS011;28110;47.080;9.476;2023-03-01T06:49:16;29.08;;;13.77;;
42478;SDS011;28110;47.080;9.476;2023-03-01T06:51:42;31.70;;;14.37;;
42478;SDS011;28110;47.080;9.476;2023-03-01T06:54:08;30.00;;;14.48;;
42478;SDS011;28110;47.080;9.476;2023-03-01T06:56:34;32.90;;;14.13;;
42478;SDS011;28110;47.080;9.476;2023-03-01T06:59:00;32.43;;;14.83;;
42478;SDS011;28110;47.080;9.476;2023-03-01T07:01:25;30.48;;;13.98;;
42478;SDS011;28110;47.080;9.476;2023-03-01T07:03:51;30.20;;;13.77;;
42478;SDS011;28110;47.080;9.476;2023-03-01T07:06:17;27.17;;;13.67;;
42478;SDS011;28110;47.080;9.476;2023-03-01T07:08:42;30.75;;;13.23;;
42478;SDS011;28110;47.080;9.476;2023-03-01T07:11:08;29.83;;;14.10;;
42478;SDS011;28110;47.080;9.476;2023-03-01T07:13:34;30.63;;;14.93;;
42478;SDS011;28110;47.080;9.476;2023-03-01T07:15:59;29.17;;;13.83;;
42478;SDS011;28110;47.080;9.476;2023-03-01T07:18:25;26.75;;;13.02;;
42478;SDS011;28110;47.080;9.476;2023-03-01T07:20:51;27.70;;;13.35;;
42478;SDS011;28110;47.080;9.476;2023-03-01T07:23:16;26.30;;;13.43;;
42478;SDS011;28110;47.080;9.476;2023-03-01T07:25:42;27.88;;;12.85;;
42478;SDS011;28110;47.080;9.476;2023-03-01T07:28:07;29.10;;;14.17;;
42478;SDS011;28110;47.080;9.476;2023-03-01T07:30:33;26.83;;;14.07;;
42478;SDS011;28110;47.080;9.476;2023-03-01T07:32:58;29.58;;;13.68;;
42478;SDS011;28110;47.080;9.476;2023-03-01T07:35:25;30.70;;;14.43;;
42478;SDS011;28110;47.080;9.476;2023-03-01T07:37:51;27.67;;;13.65;;
42478;SDS011;28110;47.080;9.476;2023-03-01T07:40:17;29.40;;;14.32;;
42478;SDS011;28110;47.080;9.476;2023-03-01T07:42:43;29.05;;;14.77;;
42478;SDS011;28110;47.080;9.476;2023-03-01T07:45:08;26.27;;;14.53;;
42478;SDS011;28110;47.080;9.476;2023-03-01T07:47:34;28.98;;;14.70;;
42478;SDS011;28110;47.080;9.476;2023-03-01T07:50:00;26.30;;;13.07;;
42478;SDS011;28110;47.080;9.476;2023-03-01T07:52:26;29.13;;;14.25;;
42478;SDS011;28110;47.080;9.476;2023-03-01T07:54:52;31.02;;;14.55;;
42478;SDS011;28110;47.080;9.476;2023-03-01T07:57:17;28.23;;;13.43;;
42478;SDS011;28110;47.080;9.476;2023-03-01T07:59:43;27.07;;;13.30;;
42478;SDS011;28110;47.080;9.476;2023-03-01T08:02:09;26.52;;;13.05;;
42478;SDS011;28110;47.080;9.476;2023-03-01T08:04:35;31.33;;;14.43;;
42478;SDS011;28110;47.080;9.476;2023-03-01T08:07:01;28.65;;;14.63;;
42478;SDS011;28110;47.080;9.476;2023-03-01T08:09:29;26.63;;;13.00;;
42478;SDS011;28110;47.080;9.476;2023-03-01T08:11:55;26.43;;;12.80;;
42478;SDS011;28110;47.080;9.476;2023-03-01T08:14:22;28.02;;;14.38;;
42478;SDS011;28110;47.080;9.476;2023-03-01T08:16:50;31.53;;;14.37;;
42478;SDS011;28110;47.080;9.476;2023-03-01T08:19:16;29.95;;;13.82;;
42478;SDS011;28110;47.080;9.476;2023-03-01T08:21:42;26.55;;;12.95;;
42478;SDS011;28110;47.080;9.476;2023-03-01T08:24:07;26.23;;;13.07;;
42478;SDS011;28110;47.080;9.476;2023-03-01T08:26:35;26.52;;;13.77;;
42478;SDS011;28110;47.080;9.476;2023-03-01T08:29:00;31.13;;;14.48;;
42478;SDS011;28110;47.080;9.476;2023-03-01T08:31:31;30.73;;;14.13;;
42478;SDS011;28110;47.080;9.476;2023-03-01T08:34:00;31.15;;;15.07;;
42478;SDS011;28110;47.080;9.476;2023-03-01T08:36:28;28.63;;;14.00;;
42478;SDS011;28110;47.080;9.476;2023-03-01T08:38:56;28.58;;;14.30;;
42478;SDS011;28110;47.080;9.476;2023-03-01T08:41:21;29.55;;;14.07;;
42478;SDS011;28110;47.080;9.476;2023-03-01T08:43:47;28.37;;;12.80;;
42478;SDS011;28110;47.080;9.476;2023-03-01T08:46:13;30.23;;;13.93;;
42478;SDS011;28110;47.080;9.476;2023-03-01T08:48:39;28.63;;;13.55;;
42478;SDS011;28110;47.080;9.476;2023-03-01T08:51:12;28.33;;;14.50;;
42478;SDS011;28110;47.080;9.476;2023-03-01T08:53:40;28.50;;;13.88;;
42478;SDS011;28110;47.080;9.476;2023-03-01T08:56:06;28.63;;;13.55;;
42478;SDS011;28110;47.080;9.476;2023-03-01T08:58:31;28.42;;;14.88;;
42478;SDS011;28110;47.080;9.476;2023-03-01T09:00:57;28.53;;;13.40;;
42478;SDS011;28110;47.080;9.476;2023-03-01T09:03:23;28.63;;;14.73;;
42478;SDS011;28110;47.080;9.476;2023-03-01T09:05:49;26.40;;;13.23;;
42478;SDS011;28110;47.080;9.476;2023-03-01T09:08:16;30.50;;;14.35;;
42478;SDS011;28110;47.080;9.476;2023-03-01T09:10:42;32.22;;;14.05;;
42478;SDS011;28110;47.080;9.476;2023-03-01T09:13:08;30.57;;;14.50;;
42478;SDS011;28110;47.080;9.476;2023-03-01T09:15:34;26.48;;;12.82;;
42478;SDS011;28110;47.080;9.476;2023-03-01T09:18:01;27.85;;;13.52;;
42478;SDS011;28110;47.080;9.476;2023-03-01T09:20:27;29.60;;;14.70;;
42478;SDS011;28110;47.080;9.476;2023-03-01T09:22:53;28.92;;;13.57;;
42478;SDS011;28110;47.080;9.476;2023-03-01T09:25:18;27.37;;;13.30;;
42478;SDS011;28110;47.080;9.476;2023-03-01T09:27:44;27.65;;;14.05;;
42478;SDS011;28110;47.080;9.476;2023-03-01T09:30:10;28.92;;;13.52;;
42478;SDS011;28110;47.080;9.476;2023-03-01T09:32:36;29.70;;;13.98;;
42478;SDS011;28110;47.080;9.476;2023-03-01T09:35:01;32.23;;;13.97;;
42478;SDS011;28110;47.080;9.476;2023-03-01T09:37:29;28.33;;;14.43;;
42478;SDS011;28110;47.080;9.476;2023-03-01T09:39:59;31.40;;;13.30;;
42478;SDS011;28110;47.080;9.476;2023-03-01T09:42:25;28.58;;;13.40;;
42478;SDS011;28110;47.080;9.476;2023-03-01T09:44:56;28.17;;;13.18;;
42478;SDS011;28110;47.080;9.476;2023-03-01T09:47:26;29.50;;;13.63;;
42478;SDS011;28110;47.080;9.476;2023-03-01T09:55:27;33.28;;;14.32;;
42478;SDS011;28110;47.080;9.476;2023-03-01T09:58:05;25.00;;;12.40;;
42478;SDS011;28110;47.080;9.476;2023-03-01T10:00:52;27.83;;;12.27;;
42478;SDS011;28110;47.080;9.476;2023-03-01T10:03:23;30.25;;;13.73;;
42478;SDS011;28110;47.080;9.476;2023-03-01T10:08:50;25.15;;;11.88;;
42478;SDS011;28110;47.080;9.476;2023-03-01T10:11:21;24.27;;;11.38;;
42478;SDS011;28110;47.080;9.476;2023-03-01T10:13:57;25.67;;;12.07;;
42478;SDS011;28110;47.080;9.476;2023-03-01T10:16:28;28.00;;;13.25;;
42478;SDS011;28110;47.080;9.476;2023-03-01T10:19:20;26.55;;;12.85;;
42478;SDS011;28110;47.080;9.476;2023-03-01T10:21:51;27.25;;;12.77;;
42478;SDS011;28110;47.080;9.476;2023-03-01T10:24:18;30.98;;;13.90;;
42478;SDS011;28110;47.080;9.476;2023-03-01T10:27:00;26.93;;;13.57;;
42478;SDS011;28110;47.080;9.476;2023-03-01T10:29:40;26.33;;;12.98;;
42478;SDS011;28110;47.080;9.476;2023-03-01T10:32:13;25.88;;;11.95;;
42478;SDS011;28110;47.080;9.476;2023-03-01T10:34:39;27.95;;;12.65;;
42478;SDS011;28110;47.080;9.476;2023-03-01T10:37:10;27.07;;;12.27;;
42478;SDS011;28110;47.080;9.476;2023-03-01T10:42:34;25.37;;;12.27;;
42478;SDS011;28110;47.080;9.476;2023-03-01T10:48:17;29.73;;;12.38;;
42478;SDS011;28110;47.080;9.476;2023-03-01T10:50:51;31.42;;;13.73;;
42478;SDS011;28110;47.080;9.476;2023-03-01T10:53:41;25.83;;;12.38;;
42478;SDS011;28110;47.080;9.476;2023-03-01T10:56:08;25.73;;;13.07;;
42478;SDS011;28110;47.080;9.476;2023-03-01T10:58:39;26.52;;;11.23;;
42478;SDS011;28110;47.080;9.476;2023-03-01T11:01:26;25.77;;;11.82;;
42478;SDS011;28110;47.080;9.476;2023-03-01T11:04:09;26.65;;;12.25;;
42478;SDS011;28110;47.080;9.476;2023-03-01T11:06:39;26.70;;;12.73;;
42478;SDS011;28110;47.080;9.476;2023-03-01T11:09:22;26.70;;;12.67;;
42478;SDS011;28110;47.080;9.476;2023-03-01T11:11:52;25.85;;;12.13;;
42478;SDS011;28110;47.080;9.476;2023-03-01T11:14:23;29.40;;;13.65;;
42478;SDS011;28110;47.080;9.476;2023-03-01T11:17:01;26.17;;;12.65;;
42478;SDS011;28110;47.080;9.476;2023-03-01T11:20:01;29.20;;;12.98;;
42478;SDS011;28110;47.080;9.476;2023-03-01T11:25:26;26.23;;;11.82;;
42478;SDS011;28110;47.080;9.476;2023-03-01T11:27:57;25.67;;;12.23;;
42478;SDS011;28110;47.080;9.476;2023-03-01T11:30:41;25.42;;;12.32;;
42478;SDS011;28110;47.080;9.476;2023-03-01T11:33:33;30.55;;;14.00;;
42478;SDS011;28110;47.080;9.476;2023-03-01T11:38:50;28.05;;;13.18;;
42478;SDS011;28110;47.080;9.476;2023-03-01T11:41:20;26.88;;;12.88;;
42478;SDS011;28110;47.080;9.476;2023-03-01T11:43:54;30.17;;;13.15;;
42478;SDS011;28110;47.080;9.476;2023-03-01T11:51:48;27.17;;;13.20;;
42478;SDS011;28110;47.080;9.476;2023-03-01T11:59:29;27.05;;;12.05;;
42478;SDS011;28110;47.080;9.476;2023-03-01T12:02:39;27.33;;;12.43;;
42478;SDS011;28110;47.080;9.476;2023-03-01T12:14:10;20.85;;;10.95;;
42478;SDS011;28110;47.080;9.476;2023-03-01T12:17:00;25.37;;;12.00;;
42478;SDS011;28110;47.080;9.476;2023-03-01T12:25:02;23.00;;;11.68;;
42478;SDS011;28110;47.080;9.476;2023-03-01T12:27:42;24.58;;;11.57;;
42478;SDS011;28110;47.080;9.476;2023-03-01T12:30:35;28.27;;;11.90;;
42478;SDS011;28110;47.080;9.476;2023-03-01T12:36:17;25.15;;;12.48;;
42478;SDS011;28110;47.080;9.476;2023-03-01T12:44:40;25.07;;;11.47;;
42478;SDS011;28110;47.080;9.476;2023-03-01T12:50:23;23.17;;;11.13;;
42478;SDS011;28110;47.080;9.476;2023-03-01T12:52:55;24.48;;;11.68;;
42478;SDS011;28110;47.080;9.476;2023-03-01T12:55:27;23.55;;;11.82;;
42478;SDS011;28110;47.080;9.476;2023-03-01T12:57:59;24.43;;;12.07;;
42478;SDS011;28110;47.080;9.476;2023-03-01T13:00:51;24.30;;;11.82;;
42478;SDS011;28110;47.080;9.476;2023-03-01T13:11:22;28.47;;;12.00;;
42478;SDS011;28110;47.080;9.476;2023-03-01T13:13:48;25.98;;;13.35;;
42478;SDS011;28110;47.080;9.476;2023-03-01T13:16:20;26.55;;;12.15;;
42478;SDS011;28110;47.080;9.476;2023-03-01T13:19:15;25.08;;;12.82;;
42478;SDS011;28110;47.080;9.476;2023-03-01T13:21:43;24.75;;;10.85;;
42478;SDS011;28110;47.080;9.476;2023-03-01T13:29:48;21.88;;;10.27;;
42478;SDS011;28110;47.080;9.476;2023-03-01T13:32:25;24.58;;;12.15;;
42478;SDS011;28110;47.080;9.476;2023-03-01T13:35:40;20.75;;;11.23;;
42478;SDS011;28110;47.080;9.476;2023-03-01T13:37:51;19.60;;;10.70;;
42478;SDS011;28110;47.080;9.476;2023-03-01T13:42:47;21.33;;;11.48;;
42478;SDS011;28110;47.080;9.476;2023-03-01T13:48:03;24.52;;;11.30;;
42478;SDS011;28110;47.080;9.476;2023-03-01T13:50:54;22.48;;;10.77;;
42478;SDS011;28110;47.080;9.476;2023-03-01T13:53:26;22.38;;;10.50;;
42478;SDS011;28110;47.080;9.476;2023-03-01T13:56:03;24.02;;;11.07;;
42478;SDS011;28110;47.080;9.476;2023-03-01T13:58:59;22.40;;;11.33;;
42478;SDS011;28110;47.080;9.476;2023-03-01T14:01:31;23.25;;;10.57;;
42478;SDS011;28110;47.080;9.476;2023-03-01T14:03:58;19.92;;;10.57;;
42478;SDS011;28110;47.080;9.476;2023-03-01T14:06:25;20.90;;;10.75;;
42478;SDS011;28110;47.080;9.476;2023-03-01T14:09:10;22.10;;;11.38;;
42478;SDS011;28110;47.080;9.476;2023-03-01T14:17:52;21.38;;;10.63;;
42478;SDS011;28110;47.080;9.476;2023-03-01T14:20:33;25.25;;;11.73;;
42478;SDS011;28110;47.080;9.476;2023-03-01T14:23:09;21.52;;;11.30;;
42478;SDS011;28110;47.080;9.476;2023-03-01T14:25:38;19.53;;;9.97;;
42478;SDS011;28110;47.080;9.476;2023-03-01T14:28:17;20.58;;;10.20;;
42478;SDS011;28110;47.080;9.476;2023-03-01T14:30:51;20.08;;;9.80;;
42478;SDS011;28110;47.080;9.476;2023-03-01T14:33:19;18.90;;;9.20;;
42478;SDS011;28110;47.080;9.476;2023-03-01T14:35:52;18.10;;;10.07;;
42478;SDS011;28110;47.080;9.476;2023-03-01T14:38:21;19.37;;;10.67;;
42478;SDS011;28110;47.080;9.476;2023-03-01T14:40:49;23.00;;;11.10;;
42478;SDS011;28110;47.080;9.476;2023-03-01T14:43:20;24.05;;;10.80;;
42478;SDS011;28110;47.080;9.476;2023-03-01T14:45:49;20.25;;;9.85;;
42478;SDS011;28110;47.080;9.476;2023-03-01T14:48:15;21.75;;;10.27;;
42478;SDS011;28110;47.080;9.476;2023-03-01T14:50:42;22.63;;;9.90;;
42478;SDS011;28110;47.080;9.476;2023-03-01T14:53:16;23.33;;;10.80;;
42478;SDS011;28110;47.080;9.476;2023-03-01T14:55:45;21.30;;;10.65;;
42478;SDS011;28110;47.080;9.476;2023-03-01T14:58:14;22.30;;;10.38;;
42478;SDS011;28110;47.080;9.476;2023-03-01T15:00:46;22.95;;;10.88;;
42478;SDS011;28110;47.080;9.476;2023-03-01T15:03:19;20.27;;;10.70;;
42478;SDS011;28110;47.080;9.476;2023-03-01T15:06:02;26.05;;;11.80;;
42478;SDS011;28110;47.080;9.476;2023-03-01T15:08:30;22.27;;;11.25;;
42478;SDS011;28110;47.080;9.476;2023-03-01T15:11:02;20.45;;;10.32;;
42478;SDS011;28110;47.080;9.476;2023-03-01T15:13:47;22.55;;;11.13;;
42478;SDS011;28110;47.080;9.476;2023-03-01T15:16:13;25.07;;;10.50;;
42478;SDS011;28110;47.080;9.476;2023-03-01T15:18:45;21.92;;;10.45;;
42478;SDS011;28110;47.080;9.476;2023-03-01T15:21:17;22.92;;;10.77;;
42478;SDS011;28110;47.080;9.476;2023-03-01T15:23:53;22.60;;;10.18;;
42478;SDS011;28110;47.080;9.476;2023-03-01T15:26:25;23.40;;;10.10;;
42478;SDS011;28110;47.080;9.476;2023-03-01T15:28:58;20.83;;;10.23;;
42478;SDS011;28110;47.080;9.476;2023-03-01T15:31:26;22.02;;;11.10;;
42478;SDS011;28110;47.080;9.476;2023-03-01T15:34:07;24.95;;;10.75;;
42478;SDS011;28110;47.080;9.476;2023-03-01T15:36:54;22.33;;;9.98;;
42478;SDS011;28110;47.080;9.476;2023-03-01T15:39:25;20.23;;;10.70;;
42478;SDS011;28110;47.080;9.476;2023-03-01T15:41:52;19.90;;;10.30;;
42478;SDS011;28110;47.080;9.476;2023-03-01T15:44:25;22.15;;;10.73;;
42478;SDS011;28110;47.080;9.476;2023-03-01T15:46:58;26.02;;;10.75;;
42478;SDS011;28110;47.080;9.476;2023-03-01T15:51:53;20.25;;;10.60;;
42478;SDS011;28110;47.080;9.476;2023-03-01T15:54:20;22.23;;;10.68;;
42478;SDS011;28110;47.080;9.476;2023-03-01T15:56:48;21.73;;;10.43;;
42478;SDS011;28110;47.080;9.476;2023-03-01T15:59:14;19.63;;;9.27;;
42478;SDS011;28110;47.080;9.476;2023-03-01T16:01:43;23.83;;;11.23;;
42478;SDS011;28110;47.080;9.476;2023-03-01T16:04:10;24.80;;;11.38;;
42478;SDS011;28110;47.080;9.476;2023-03-01T16:06:45;22.17;;;11.15;;
42478;SDS011;28110;47.080;9.476;2023-03-01T16:09:12;21.30;;;10.35;;
42478;SDS011;28110;47.080;9.476;2023-03-01T16:11:37;21.83;;;10.60;;